Time;durP1;ratioP1;P1;durP2;ratioP2;P2;SDS_P1;SDS_P2;PMS_P1;PMS_P2;Temp;Humidity;BMP_temperature;BMP_pressure;BME280_temperature;BME280_humidity;BME280_pressure;Samples;Min_cycle;Max_cycle;Signal;HPM_P1;HPM_P2
2021/11/11 00:01:06;;;;;;;7.43;3.70;;;;;;;;;;21170020;28;20043;-58
2021/11/11 00:11:08;;;;;;;8.27;4.00;;;;;;;;;;21169420;28;20130;-58
2021/11/11 00:21:11;;;;;;;9.13;3.85;;;;;;;;;;21168561;28;20052;-63
2021/11/11 00:31:13;;;;;;;8.77;4.60;;;;;;;;;;21149278;28;20507;-63
2021/11/11 00:41:15;;;;;;;7.38;4.07;;;;;;;;;;21167115;28;20136;-60
2021/11/11 00:51:17;;;;;;;9.35;4.90;;;;;;;;;;21166315;28;20047;-59
2021/11/11 01:01:19;;;;;;;7.60;4.57;;;;;;;;;;21165498;28;20472;-59
2021/11/11 01:11:22;;;;;;;8.95;4.55;;;;;;;;;;21164055;28;20048;-59
2021/11/11 01:21:24;;;;;;;9.32;4.13;;;;;;;;;;21164128;28;20150;-59
2021/11/11 01:31:27;;;;;;;13.73;4.68;;;;;;;;;;21163113;28;20052;-59
2021/11/11 01:41:31;;;;;;;11.52;5.03;;;;;;;;;;21164393;28;20101;-59
2021/11/11 01:51:33;;;;;;;7.25;4.03;;;;;;;;;;21162678;28;20453;-58
2021/11/11 02:01:36;;;;;;;6.40;4.07;;;;;;;;;;21162413;28;20075;-58
2021/11/11 02:11:39;;;;;;;6.13;3.90;;;;;;;;;;21162118;28;20047;-59
2021/11/11 02:21:50;;;;;;;6.00;4.23;;;;;;;;;;21171613;28;20047;-59
2021/11/11 02:31:55;;;;;;;10.73;4.07;;;;;;;;;;21177296;28;20055;-59
2021/11/11 02:41:59;;;;;;;9.90;4.70;;;;;;;;;;21177174;28;20516;-58
2021/11/11 02:52:04;;;;;;;8.77;4.82;;;;;;;;;;21176163;28;20053;-58
2021/11/11 03:02:19;;;;;;;8.07;4.60;;;;;;;;;;21175150;28;20051;-62
2021/11/11 03:12:21;;;;;;;8.30;4.47;;;;;;;;;;21174382;28;20131;-61
2021/11/11 03:22:26;;;;;;;8.57;5.32;;;;;;;;;;21173430;28;20065;-61
2021/11/11 03:32:33;;;;;;;9.65;4.55;;;;;;;;;;21172197;28;20054;-59
2021/11/11 03:42:38;;;;;;;7.72;4.90;;;;;;;;;;21172427;28;20146;-59
2021/11/11 03:52:41;;;;;;;9.18;4.70;;;;;;;;;;21170679;28;20071;-60
2021/11/11 04:02:45;;;;;;;9.38;4.60;;;;;;;;;;21169856;28;20044;-60
2021/11/11 04:12:50;;;;;;;9.75;4.90;;;;;;;;;;21151176;28;20532;-59
2021/11/11 04:22:56;;;;;;;8.05;4.93;;;;;;;;;;21167660;28;20056;-61
2021/11/11 04:33:03;;;;;;;6.87;4.10;;;;;;;;;;21168606;28;20511;-58
2021/11/11 05:03:48;;;;;;;7.22;4.43;;;;;;;;;;21166475;28;20052;-58
2021/11/11 05:13:53;;;;;;;6.88;4.47;;;;;;;;;;21165091;28;20142;-58
2021/11/11 05:23:58;;;;;;;9.00;5.28;;;;;;;;;;21145376;28;20136;-58
2021/11/11 05:34:01;;;;;;;8.55;4.88;;;;;;;;;;21163145;28;20052;-58
2021/11/11 05:44:04;;;;;;;7.07;4.88;;;;;;;;;;21162919;28;20059;-57
2021/11/11 05:54:10;;;;;;;8.00;4.78;;;;;;;;;;21150096;28;20051;-58
2021/11/11 06:04:13;;;;;;;9.93;4.78;;;;;;;;;;21180122;28;20073;-58
2021/11/11 06:14:15;;;;;;;9.05;4.32;;;;;;;;;;21179452;28;20043;-59
2021/11/11 06:24:20;;;;;;;8.05;4.40;;;;;;;;;;21177488;28;20082;-57
2021/11/11 06:34:22;;;;;;;37.53;7.47;;;;;;;;;;21176536;28;20055;-58
2021/11/11 06:44:25;;;;;;;9.73;4.22;;;;;;;;;;21175987;28;20126;-57
2021/11/11 06:54:28;;;;;;;8.13;4.55;;;;;;;;;;21175894;28;20055;-60
2021/11/11 07:04:31;;;;;;;6.60;4.72;;;;;;;;;;21174328;28;20415;-58
2021/11/11 07:14:33;;;;;;;8.80;4.95;;;;;;;;;;21174760;28;20097;-57
2021/11/11 07:24:38;;;;;;;8.02;4.80;;;;;;;;;;21172176;28;20083;-58
2021/11/11 07:34:40;;;;;;;10.20;4.97;;;;;;;;;;21172309;28;20125;-58
2021/11/11 07:44:43;;;;;;;12.75;6.85;;;;;;;;;;21170917;28;20047;-57
2021/11/11 07:54:45;;;;;;;14.20;5.80;;;;;;;;;;21171440;28;20071;-58
2021/11/11 08:04:49;;;;;;;13.13;6.03;;;;;;;;;;21169615;28;20044;-58
2021/11/11 08:14:51;;;;;;;10.85;6.25;;;;;;;;;;21168919;28;20050;-58
2021/11/11 08:24:54;;;;;;;10.70;6.13;;;;;;;;;;21168088;28;20502;-59
2021/11/11 08:34:58;;;;;;;18.40;6.43;;;;;;;;;;21167016;28;20059;-58
2021/11/11 08:45:02;;;;;;;19.20;6.80;;;;;;;;;;21166901;28;20412;-58
2021/11/11 08:55:05;;;;;;;13.07;6.68;;;;;;;;;;21165652;28;20135;-59
2021/11/11 09:05:08;;;;;;;15.45;8.57;;;;;;;;;;21147319;28;20047;-59
2021/11/11 09:15:13;;;;;;;14.05;7.40;;;;;;;;;;21165218;28;20468;-60
2021/11/11 09:25:16;;;;;;;14.33;7.63;;;;;;;;;;21145231;28;20147;-62
2021/11/11 09:35:18;;;;;;;24.08;9.43;;;;;;;;;;21144775;28;20075;-62
2021/11/11 09:45:22;;;;;;;16.92;7.07;;;;;;;;;;21163589;28;20074;-62
2021/11/11 10:05:46;;;;;;;16.95;8.55;;;;;;;;;;21162505;28;20536;-58
2021/11/11 10:15:58;;;;;;;20.30;8.38;;;;;;;;;;21161648;28;20054;-59
2021/11/11 10:26:27;;;;;;;17.25;8.55;;;;;;;;;;21161681;28;20051;-59
2021/11/11 10:36:46;;;;;;;13.75;7.68;;;;;;;;;;21161449;28;20480;-59
2021/11/11 10:46:56;;;;;;;12.98;7.95;;;;;;;;;;21177208;28;20052;-59
2021/11/11 10:56:58;;;;;;;10.88;5.90;;;;;;;;;;21163460;28;20122;-56
2021/11/11 11:07:16;;;;;;;23.33;8.15;;;;;;;;;;21123254;28;20052;-56
2021/11/11 11:17:18;;;;;;;19.15;8.90;;;;;;;;;;21168358;28;20044;-56
2021/11/11 11:27:31;;;;;;;16.58;9.02;;;;;;;;;;21171642;28;20055;-59
2021/11/11 11:37:35;;;;;;;39.92;9.85;;;;;;;;;;21170727;28;20047;-68
2021/11/11 11:47:54;;;;;;;22.33;9.60;;;;;;;;;;21155139;28;20043;-60
2021/11/11 11:58:04;;;;;;;13.25;8.48;;;;;;;;;;21169177;28;20051;-61
2021/11/11 12:38:57;;;;;;;18.63;7.90;;;;;;;;;;21134794;28;20491;-59
2021/11/11 12:49:17;;;;;;;16.83;9.15;;;;;;;;;;21148376;28;20058;-61
2021/11/11 12:59:22;;;;;;;23.05;12.32;;;;;;;;;;21166505;28;20047;-61
2021/11/11 13:09:49;;;;;;;24.83;10.40;;;;;;;;;;21162757;28;20047;-59
2021/11/11 13:20:15;;;;;;;21.40;10.73;;;;;;;;;;21163509;28;20483;-60
2021/11/11 14:01:48;;;;;;;15.25;9.35;;;;;;;;;;21163013;28;20044;-59
2021/11/11 15:13:32;;;;;;;16.80;9.32;;;;;;;;;;21175274;28;20472;-60
2021/11/11 16:27:23;;;;;;;16.25;10.10;;;;;;;;;;21167194;28;20051;-60
2021/11/11 16:37:25;;;;;;;21.23;10.32;;;;;;;;;;21167214;28;20416;-60
2021/11/11 16:47:27;;;;;;;19.38;9.57;;;;;;;;;;21165812;28;20043;-59
2021/11/11 16:57:29;;;;;;;25.45;10.88;;;;;;;;;;21166308;28;20043;-60
2021/11/11 17:07:31;;;;;;;18.70;9.18;;;;;;;;;;21164419;28;20074;-59
2021/11/11 17:17:34;;;;;;;22.55;11.68;;;;;;;;;;21164568;28;20454;-60
2021/11/11 17:27:46;;;;;;;22.40;11.80;;;;;;;;;;21163021;28;20059;-59
2021/11/11 17:37:50;;;;;;;18.15;10.48;;;;;;;;;;21162016;28;20044;-60
2021/11/11 17:47:55;;;;;;;24.33;10.88;;;;;;;;;;21144125;28;20056;-60
2021/11/11 17:58:02;;;;;;;21.00;12.13;;;;;;;;;;21162201;28;20048;-61
2021/11/11 18:08:13;;;;;;;26.52;14.57;;;;;;;;;;21161516;28;20055;-60
2021/11/11 18:18:18;;;;;;;26.90;12.63;;;;;;;;;;21144892;28;20060;-60
2021/11/11 18:28:38;;;;;;;32.10;18.25;;;;;;;;;;21161414;28;20510;-61
2021/11/11 18:38:40;;;;;;;30.73;16.83;;;;;;;;;;21127985;28;20543;-60
2021/11/11 18:48:42;;;;;;;36.08;20.92;;;;;;;;;;21160656;28;20119;-61
2021/11/11 18:58:45;;;;;;;37.22;18.52;;;;;;;;;;21159893;28;20164;-60
2021/11/11 19:08:54;;;;;;;33.50;15.90;;;;;;;;;;21174283;28;20393;-60
2021/11/11 19:18:59;;;;;;;31.10;15.88;;;;;;;;;;21173983;28;20047;-60
2021/11/11 19:29:01;;;;;;;22.48;10.48;;;;;;;;;;21172213;28;20112;-60
2021/11/11 19:39:27;;;;;;;15.75;8.85;;;;;;;;;;21171501;28;20130;-60
2021/11/11 20:10:18;;;;;;;7.87;4.93;;;;;;;;;;21168629;28;20138;-60
2021/11/11 21:12:11;;;;;;;10.45;5.00;;;;;;;;;;20822453;28;20053;-59
2021/11/11 21:22:13;;;;;;;13.52;5.80;;;;;;;;;;20820953;28;20421;-61
2021/11/11 21:32:16;;;;;;;9.63;5.47;;;;;;;;;;20821021;28;20084;-59
2021/11/11 21:42:22;;;;;;;10.43;5.18;;;;;;;;;;20873362;28;20044;-60
2021/11/11 21:52:27;;;;;;;16.30;6.05;;;;;;;;;;21077546;28;20109;-59
2021/11/11 22:02:43;;;;;;;14.18;6.82;;;;;;;;;;21077426;28;20102;-60
2021/11/11 22:23:26;;;;;;;11.88;6.43;;;;;;;;;;21083684;28;20043;-60
2021/11/11 22:33:30;;;;;;;17.90;9.75;;;;;;;;;;21162537;28;20048;-60
2021/11/11 22:43:32;;;;;;;13.25;6.00;;;;;;;;;;21176619;28;20044;-60
2021/11/11 23:03:57;;;;;;;14.15;6.55;;;;;;;;;;21175672;28;20047;-61
2021/11/11 23:14:06;;;;;;;15.57;7.22;;;;;;;;;;21174856;28;20047;-59
2021/11/11 23:34:34;;;;;;;11.77;5.93;;;;;;;;;;20830816;28;20056;-59
2021/11/11 23:44:37;;;;;;;16.00;7.63;;;;;;;;;;20829719;28;20160;-60
